Cockrell Hill, Texas
Current Conditions -  °F | °C
As of 7:53 PM on Monday 20 Oct 2014 (Local Time) from KRBD Reporting Station
Clear Clear  
Wind Chill: 70°   Ceiling: Unl
Heat Index: 70°   Visibility: 10mi
Dew Point: 59°   Wind: 5mph
Humidity: 68%   Direction: 130°SE
Pressure: 30.02"   Gusts: NA
Location:  32.7371°N, 96.9045°W
Report Text: KRBD 210053Z 13004KT 10SM CLR 21/15 A3002 RMK AO2 SLP162 T02110150
Loading
Personal Weather Stations






























Interactive Weather Map New forecast layout! Learn more

10-Day Weather Forecast

Advertisements
Track Severe Weather on mobile